Tiempo atmosférico en la estación meteorológica de Villena, Alacant/Alicante (486 m.)



Fecha
DESCASC
Temp. máxima en grados centígrados (hora)
DESCASC
Temp. mínima en grados centígrados (hora)
DESCASC
Temp. media en grados centígrados
DESCASC
Racha de viento máxima en m/sg (hora)
DESCASC
Velocidad máxima media en intervalos de 10 minutos(hora)
DESCASC
Precipitaciones diarias en mm
DESCASC
Precipitaciones de 00:00 a 06:00 en mm
DESCASC
Precipitaciones de 06:00 a 12:00 en mm
DESCASC
Precipitaciones de 12:00 a 18:00 en mm
DESCASC
Precipitaciones de 18:00 a 24:00 en mm
DESCASC
02-08-2020 38.7 (14:50) 15.4 (04:50) 27.1 12.78 (15:30) 9.44 (18:30) -- -- 0 0 0
01-08-2020 41.9 (16:40) 18.1 (07:00) 30 10.28 (19:10) 6.94 (18:10) -- 0 -- -- --
31-07-2020 37.7 (15:50) 17.4 (07:00) 27.6 10.83 (18:00) 8.33 (18:40) 0 0 0 0 0
30-07-2020 37.7 (16:00) 19.2 (00:00) 28.5 9.44 (23:40) 6.39 (16:40) 0 0 0 0 0
29-07-2020 34.5 (16:00) 20.6 (00:00) 27.6 10.28 (19:20) 6.67 (18:10) 0 0 0 0 0
28-07-2020 36.5 (16:40) 14.6 (00:00) 25.6 8.89 (14:00) 5.28 (12:10) 0 0 0 0 0
27-07-2020 36.6 (15:00) 14.9 (00:00) 25.7 10.56 (18:10) 7.78 (18:10) 0 0 0 0 0
26-07-2020 36.5 (16:20) 13.5 (00:00) 25 8.61 (14:20) 6.39 (18:20) -- -- -- -- --
25-07-2020 33.8 (16:10) 16 (00:00) 24.9 8.89 (18:50) 6.39 (18:40) -- -- -- -- --
24-07-2020 34.7 (13:40) 14.6 (00:00) 24.7 10.83 (17:20) 7.5 (16:10) -- -- -- -- --
23-07-2020 34.5 (14:50) 15 (00:00) 24.8 9.72 (16:20) 6.67 (19:40) -- -- -- -- --
22-07-2020 31.8 (15:10) 19 (00:00) 25.4 12.78 (19:30) 9.44 (19:30) -- -- -- -- --
21-07-2020 33.6 (14:40) 15.6 (00:00) 24.6 10 (14:30) 6.67 (17:00) -- -- -- -- --
20-07-2020 33.1 (15:30) 19.6 (00:00) 26.3 9.17 (19:10) 6.67 (18:40) -- -- -- -- --
19-07-2020 31.6 (15:50) 13.8 (00:00) 22.7 11.67 (19:20) 8.61 (19:50) -- -- -- -- --
18-07-2020 30 (15:50) 14.5 (00:00) 22.3 11.39 (13:20) 6.39 (20:30) -- -- -- -- --
17-07-2020 29.9 (15:30) 15.5 (00:00) 22.7 10.56 (14:40) 6.67 (16:30) -- -- -- -- --
16-07-2020 30.3 (15:10) 12.9 (00:00) 21.6 9.44 (15:30) 6.11 (16:20) -- -- -- -- --
15-07-2020 29.9 (15:50) 15.1 (00:00) 22.5 9.17 (18:20) 7.22 (18:30) -- -- -- -- --
14-07-2020 29.1 (12:30) 15.4 (00:00) 22.3 10.83 (13:20) 7.5 (13:30) -- -- -- -- --
13-07-2020 33.4 (15:50) 15.7 (00:00) 24.6 10 (17:20) 6.67 (17:50) -- -- -- -- --
12-07-2020 31.2 (13:20) 16.5 (05:40) 23.9 12.78 (13:40) 8.61 (19:10) -- -- -- -- --
11-07-2020 31.9 (17:30) 17.8 (07:00) 24.8 12.22 (15:50) 6.94 (15:30) -- -- -- -- --
10-07-2020 32.9 (15:20) 16.9 (00:00) 24.9 9.17 (16:30) 6.11 (19:30) -- -- -- -- --
09-07-2020 32.3 (14:20) 18.5 (06:00) 25.4 17.22 (01:00) 12.5 (01:00) -- -- -- -- --
08-07-2020 31.2 (15:40) 15.2 (06:50) 23.2 11.11 (14:50) 8.06 (14:50) -- -- -- -- --

Gráficas

Temp. máximas Temp. mínimas Temp. medias Precipitaciones Rachas de viento máximas Velocidades máximas media en intervalos de 10 minutos

Datos horarios

Fecha y hora oficial Temperatura (ºC) Velocidad del viento (km/h) Dirección del viento Racha (km/h) Dirección de racha Precipitación (mm) Presión (hPa) Tendencia (hPa) Humedad (%)
2020-08-06 23:00:00 22.4 9 Sudeste 15 Sudeste 0 -- -- 74
2020-08-06 22:00:00 23.7 12 Sudeste 18 Sur 0 -- -- 70
2020-08-06 21:00:00 25.4 12 Sudeste 30 Sur 0 -- -- 62
2020-08-06 20:00:00 27.8 22 Sur 29 Sudeste 0 -- -- 52
2020-08-06 19:00:00 29.8 19 Sur 27 Sudeste 0 -- -- 44
2020-08-06 18:00:00 30.7 21 Sur 30 Sur 0 -- -- 42
2020-08-06 17:00:00 31.4 21 Sur 30 Sur 0 -- -- 42
2020-08-06 16:00:00 32.1 17 Sur 31 Sudeste 0 -- -- 40
2020-08-06 15:00:00 31.8 14 Sur 33 Sur 0 -- -- 37
2020-08-06 14:00:00 31.3 15 Sur 28 Sudeste 0 -- -- 37
2020-08-06 13:00:00 30.3 13 Sur 32 Sudeste 0 -- -- 34
2020-08-06 12:00:00 28.9 10 Sudeste 20 Sur 0 -- -- 38
2020-08-06 11:00:00 27 9 Este 15 Sur 0 -- -- 43
2020-08-06 10:00:00 24.4 3 Sur 7 Sudoeste 0 -- -- 69
2020-08-06 09:00:00 22.3 3 Sudeste 7 Este 0 -- -- 84
2020-08-06 08:00:00 19.7 5 Sudeste 9 Sudeste 0 -- -- 93
2020-08-06 07:00:00 19.9 6 Sudeste 11 Sudeste 0 -- -- 95
2020-08-06 06:00:00 19 4 Sudeste 7 Sudeste 0 -- -- 94
2020-08-06 05:00:00 19 3 Sur 5 Sur 0 -- -- 93
2020-08-06 04:00:00 19.6 4 Sudeste 8 Sudeste 0 -- -- 92
2020-08-06 03:00:00 19.7 5 Sudeste 8 Sudeste 0 -- -- 92
2020-08-06 02:00:00 20.1 7 Sudeste 9 Sudeste 0 -- -- 90
2020-08-06 01:00:00 20.5 8 Sudeste 10 Sudeste 0 -- -- 89
2020-08-06 00:00:00 21.3 8 Sudeste 11 Sudeste 0 -- -- 86
2020-08-05 23:00:00 22.2 9 Sudeste 19 Sudeste 0 -- -- 82
2020-08-05 22:00:00 23.1 15 Sudeste 26 Sudeste 0 -- -- 79
2020-08-05 21:00:00 24.5 18 Sur 29 Sur 0 -- -- 72
2020-08-05 20:00:00 26.4 23 Sur 33 Sudeste 0 -- -- 64
2020-08-05 19:00:00 28.1 25 Sur 37 Sur 0 -- -- 59
2020-08-05 18:00:00 29.4 25 Sur 36 Sur 0 -- -- 56
2020-08-05 17:00:00 30.6 22 Sur 31 Sur 0 -- -- 53
2020-08-05 16:00:00 30.8 19 Sudeste 29 Sudeste 0 -- -- 51
2020-08-05 15:00:00 30.8 14 Sur 26 Sudeste 0 -- -- 49
2020-08-05 14:00:00 29.5 16 Sur 31 Sur 0 -- -- 53
2020-08-05 13:00:00 28.3 14 Sur 30 Sudeste 0 -- -- 56
2020-08-05 12:00:00 26.9 14 Sur 24 Sur 0 -- -- 58
2020-08-05 11:00:00 25.5 12 Sudoeste 23 Sudoeste 0 -- -- 64
2020-08-05 10:00:00 23 3 Sur 6 Sur 0 -- -- 79
2020-08-05 09:00:00 19.9 0 Calma 4 Sudeste 0 -- -- 95
2020-08-05 08:00:00 16.9 0 Calma 4 Este 0 -- -- 96
2020-08-05 07:00:00 16.3 0 Calma 3 Norte 0 -- -- 95
2020-08-05 06:00:00 17.1 0 Calma 3 Sur 0 -- -- 94
2020-08-05 05:00:00 17.9 0 Calma 7 Sudeste 0 -- -- 94
2020-08-05 04:00:00 18.9 5 Sur 7 Sudeste 0 -- -- 93
2020-08-05 03:00:00 19.3 6 Sudeste 9 Sudeste 0 -- -- 93
2020-08-05 02:00:00 19.9 8 Sudeste 10 Sudeste 0 -- -- 91
2020-08-05 01:00:00 20.6 9 Sudeste 11 Sudeste 0 -- -- 91
2020-08-05 00:00:00 20.9 7 Sudeste 13 Sudeste 0 -- -- 89
2020-08-04 23:00:00 21.5 12 Sudeste 19 Sudeste 1.8 -- -- 86
2020-08-04 22:00:00 22.3 14 Sudeste 22 Sudeste 3 -- -- 83
2020-08-04 21:00:00 23.2 19 Sudeste 31 Sudeste 1.8 -- -- 79
2020-08-04 20:00:00 24.7 21 Sur 28 Sur 1 -- -- 74
2020-08-04 19:00:00 25.9 22 Sur 29 Sudeste 0.6 -- -- 72
2020-08-04 18:00:00 24.8 19 Sudeste 33 Sur 0.8 -- -- 83
2020-08-04 17:00:00 26.5 16 Este 45 Sudeste 0 -- -- 63
2020-08-04 16:00:00 29.4 32 Sudeste 43 Sudeste 0 -- -- 53
2020-08-04 15:00:00 29.4 26 Sudeste 37 Sudeste 0 -- -- 54
2020-08-04 14:00:00 29.6 21 Sur 36 Sudeste 0 -- -- 53
2020-08-04 13:00:00 28.3 25 Sudeste 38 Sudeste 0 -- -- 58
2020-08-04 12:00:00 27.7 25 Sur 35 Sur 0 -- -- 64
2020-08-04 11:00:00 26.9 14 Sudeste 21 Sudeste 0 -- -- 65
2020-08-04 10:00:00 24.1 10 Sur 15 Sudoeste 0 -- -- 76
2020-08-04 09:00:00 24.1 9 Sur 13 Sudeste 0 -- -- 77
2020-08-04 08:00:00 22.8 8 Sudeste 12 Sudeste 0 -- -- 85
2020-08-04 07:00:00 22.6 7 Sudeste 12 Sur 0 -- -- 85
2020-08-04 06:00:00 22.7 4 Sur 10 Sudoeste 0 -- -- 84
2020-08-04 05:00:00 23 6 Sur 13 Sur 0 -- -- 84
2020-08-04 04:00:00 22.7 7 Sudeste 10 Sudeste 0 -- -- 84
2020-08-04 03:00:00 23 8 Sudeste 17 Sudeste 0 -- -- 81
2020-08-04 02:00:00 23.3 14 Sudeste 19 Sudeste 0 -- -- 80
2020-08-04 01:00:00 23.5 14 Sudeste 23 Sudeste 0 -- -- 82
2020-08-04 00:00:00 23.6 13 Sur 20 Sudeste 0 -- -- 80
2020-08-03 23:00:00 23.8 13 Sur 21 Sur 0 -- -- 80
2020-08-03 22:00:00 24.4 15 Sudeste 26 Sur 0 -- -- 76
2020-08-03 21:00:00 24.7 19 Sur 31 Sudeste 0 -- -- 75
2020-08-03 20:00:00 26.4 21 Sur 33 Sur 0 -- -- 69
2020-08-03 19:00:00 27.8 22 Sudeste 35 Sur 0 -- -- 64
2020-08-03 18:00:00 29.1 26 Sudeste 35 Sudeste 0 -- -- 60
2020-08-03 17:00:00 31 22 Sudeste 31 Sudeste 0 -- -- 54
2020-08-03 16:00:00 31.8 7 Oeste 25 Nordeste 0 -- -- 43
2020-08-03 15:00:00 31.4 15 Nordeste 28 Norte 0 -- -- 46
2020-08-03 14:00:00 32 10 Noroeste 21 Noroeste 0 -- -- 43
2020-08-03 13:00:00 30.2 8 Noroeste 24 Norte 0 -- -- 52
2020-08-03 12:00:00 29 7 Norte 13 Norte 0 -- -- 57
2020-08-03 11:00:00 26.7 6 Oeste 12 Noroeste 0 -- -- 69
2020-08-03 10:00:00 24.6 4 Norte 9 Norte 0 -- -- 79
2020-08-03 09:00:00 22.2 0 Calma 10 Este 0 -- -- 88
2020-08-03 08:00:00 18.9 5 Sudoeste 7 Sudoeste 0 -- -- 92
2020-08-03 07:00:00 18.3 0 Calma 7 Este 0 -- -- 91
2020-08-03 06:00:00 19.1 0 Calma 5 Oeste 0 -- -- 90
2020-08-03 05:00:00 19.8 0 Calma 9 Oeste 0 -- -- 89
2020-08-03 04:00:00 21.2 0 Calma 12 Sudeste 0 -- -- 90
2020-08-03 03:00:00 21.6 10 Sudeste 13 Sudeste 0 -- -- 84
2020-08-03 02:00:00 23.3 7 Nordeste 14 Este 0 -- -- 80
2020-08-03 01:00:00 23.4 10 Sudeste 14 Sudeste 0 -- -- 74
2020-08-03 00:00:00 23.9 8 Este 14 Sudeste 0 -- -- 74
2020-08-02 23:00:00 24.9 10 Sudeste 13 Sudeste 0 -- -- 70
2020-08-02 22:00:00 26.1 8 Sudeste 21 Sur 0 -- -- 67
2020-08-02 21:00:00 27.6 16 Sur 22 Sur 0 -- -- 64
2020-08-02 20:00:00 29.1 18 Sur 31 Sur 0 -- -- 57
2020-08-02 19:00:00 30 24 Sudeste 43 Sudeste 0 -- -- 57
2020-08-02 18:00:00 31.2 33 Sudeste 44 Sudeste 0 -- -- 54
2020-08-02 17:00:00 32.9 30 Sur 46 Sudeste 0 -- -- 50
2020-08-02 16:00:00 34 33 Sudeste 46 Sudeste 0 -- -- 47
2020-08-02 15:00:00 37.5 25 Sur 39 Sudeste 0 -- -- 37
2020-08-02 14:00:00 36.5 8 Norte 17 Noroeste 0 -- -- 28
2020-08-02 13:00:00 34.5 10 Norte 16 Norte 0 -- -- 34
2020-08-02 12:00:00 32.8 8 Norte 19 Noroeste 0 -- -- 38
2020-08-02 11:00:00 30.8 7 Noroeste 18 Norte 0 -- -- 45
2020-08-02 10:00:00 28.4 9 Noroeste 19 Noroeste 0 -- -- 47
2020-08-02 09:00:00 24.5 12 Noroeste 19 Noroeste 0 -- -- 39
2020-08-02 08:00:00 19 12 Norte 17 Norte 0 -- -- 50
2020-08-02 07:00:00 17 9 Norte 15 Norte 0 -- -- 59
2020-08-02 06:00:00 16.5 10 Norte 14 Norte 0 -- -- 71
2020-08-02 05:00:00 15.4 4 Norte 8 Norte 0 -- -- 80
2020-08-02 04:00:00 16.4 0 Calma 4 Sur 0 -- -- 79
2020-08-02 03:00:00 18.8 0 Calma 14 Noroeste 0 -- -- 73
2020-08-02 02:00:00 20.2 3 Este 7 Noroeste 0 -- -- 63
2020-08-02 01:00:00 21.6 4 Oeste 6 Noroeste 0 -- -- 71
2020-08-02 00:00:00 23.3 2 Oeste 6 Oeste 0 -- -- 64
2020-08-01 23:00:00 26.4 4 Sudoeste 8 Sudoeste 0 -- -- 53
2020-08-01 22:00:00 29.4 4 Sur 15 Sudeste 0 -- -- 53
2020-08-01 21:00:00 32.5 14 Sudeste 25 Sudeste 0 -- -- 46
2020-08-01 20:00:00 34.6 15 Sur 37 Sur 0 -- -- 39
2020-08-01 19:00:00 32.6 22 Sudeste 34 Sur 0 -- -- 53
2020-08-01 18:00:00 37.9 21 Sur 30 Sur 0 -- -- 40
2020-08-01 17:00:00 41.4 12 Sur 28 Sudoeste 0 -- -- 28
2020-08-01 16:00:00 39.6 4 Norte 25 Noroeste 0 -- -- 20
2020-08-01 15:00:00 40.5 9 Noroeste 24 Oeste 0 -- -- 21
2020-08-01 14:00:00 39.7 9 Noroeste 26 Noroeste 0 -- -- 22
2020-08-01 13:00:00 38.7 11 Noroeste 24 Oeste 0 -- -- 22
2020-08-01 12:00:00 36.9 16 Oeste 26 Oeste 0 -- -- 26
2020-08-01 11:00:00 32.5 5 Norte 13 Norte 0 -- -- 45
2020-08-01 10:00:00 27.6 8 Norte 13 Noroeste 0 -- -- 60
2020-08-01 09:00:00 23.6 5 Noroeste 9 Noroeste 0 -- -- 73
2020-08-01 08:00:00 18.8 4 Noroeste 10 Noroeste 0 -- -- 88
2020-08-01 07:00:00 18.1 6 Oeste 8 Oeste 0 -- -- 87
2020-08-01 06:00:00 18.5 0 Calma 7 Sudoeste 0 -- -- 84
2020-08-01 05:00:00 18.6 5 Oeste 7 Sudoeste 0 -- -- 83
2020-08-01 04:00:00 18.9 0 Calma 6 Oeste 0 -- -- 84
2020-08-01 03:00:00 19.3 3 Sudoeste 5 Sudoeste 0 -- -- 81
2020-08-01 02:00:00 20.5 0 Calma 4 Sudoeste 0 -- -- 79
2020-08-01 01:00:00 21.9 2 Sur 5 Este 0 -- -- 78
2020-08-01 00:00:00 23.5 0 Calma 6 Sudoeste 0 -- -- 75
2020-07-31 23:00:00 25.1 0 Calma 14 Sudeste 0 -- -- 73
2020-07-31 22:00:00 27.7 9 Sudeste 20 Sudeste 0 -- -- 64
2020-07-31 21:00:00 29.6 14 Sudeste 26 Sudeste 0 -- -- 58
2020-07-31 20:00:00 32.3 16 Sudeste 30 Sudeste 0 -- -- 48
2020-07-31 19:00:00 32.2 23 Sudeste 39 Sudeste 0 -- -- 46
2020-07-31 18:00:00 36 25 Sudeste 39 Sudeste 0 -- -- 37
2020-07-31 17:00:00 37.2 24 Sudeste 35 Sudeste 0 -- -- 32
2020-07-31 16:00:00 37.7 20 Sur 34 Sudeste 0 -- -- 31
2020-07-31 15:00:00 37.1 18 Sudeste 32 Sudeste 0 -- -- 31
2020-07-31 14:00:00 36.5 17 Sur 30 Sudeste 0 -- -- 32
2020-07-31 13:00:00 35.7 20 Sur 30 Sudeste 0 -- -- 31
2020-07-31 12:00:00 34.6 18 Sudeste 27 Sudeste 0 -- -- 30
2020-07-31 11:00:00 30.9 3 Sudeste 8 Nordeste 0 -- -- 44
2020-07-31 10:00:00 26.6 4 Nordeste 8 Norte 0 -- -- 54
2020-07-31 09:00:00 22.9 4 Norte 7 Noroeste 0 -- -- 66
2020-07-31 08:00:00 18.8 5 Noroeste 12 Norte 0 -- -- 79
2020-07-31 07:00:00 17.4 5 Norte 10 Norte 0 -- -- 83
2020-07-31 06:00:00 18.5 6 Noroeste 10 Norte 0 -- -- 81
2020-07-31 05:00:00 19.1 9 Norte 10 Norte 0 -- -- 79
2020-07-31 04:00:00 19.9 6 Norte 13 Noroeste 0 -- -- 77
2020-07-31 03:00:00 20.8 6 Norte 11 Norte 0 -- -- 75
2020-07-31 02:00:00 22 5 Oeste 12 Norte 0 -- -- 75
2020-07-31 01:00:00 23.3 9 Norte 21 Nordeste 0 -- -- 75
2020-07-31 00:00:00 24.9 17 Nordeste 34 Norte 0 -- -- 69
2020-07-30 23:00:00 25 3 Oeste 12 Sudeste 0 -- -- 60
2020-07-30 22:00:00 27.4 2 Sur 19 Sudeste 0 -- -- 53
2020-07-30 21:00:00 28.9 14 Sudeste 24 Este 0 -- -- 49
2020-07-30 20:00:00 30.5 15 Sur 28 Sudoeste 0 -- -- 44
2020-07-30 19:00:00 31.9 19 Sudoeste 27 Sur 0 -- -- 42
2020-07-30 18:00:00 34.3 21 Sur 32 Sur 0 -- -- 39
2020-07-30 17:00:00 36.4 21 Sur 30 Sur 0 -- -- 28
2020-07-30 16:00:00 37.7 15 Sudeste 27 Sudeste 0 -- -- 26
2020-07-30 15:00:00 36.8 11 Sudeste 22 Sudeste 0 -- -- 27
2020-07-30 14:00:00 35.2 10 Este 20 Sur 0 -- -- 33
2020-07-30 13:00:00 32.9 8 Sudeste 24 Sudoeste 0 -- -- 37
2020-07-30 12:00:00 30.9 13 Sudoeste 24 Sudoeste 0 -- -- 41
2020-07-30 11:00:00 27.5 4 Noroeste 27 Oeste 0 -- -- 54
2020-07-30 10:00:00 24.8 9 Nordeste 16 Oeste 0 -- -- 64
2020-07-30 09:00:00 23.1 9 Noroeste 19 Oeste 0 -- -- 76
2020-07-30 08:00:00 20.5 8 Noroeste 15 Noroeste 0 -- -- 89
2020-07-30 07:00:00 19.2 8 Oeste 17 Noroeste 0 -- -- 89
2020-07-30 06:00:00 19.8 6 Noroeste 22 Noroeste 0 -- -- 87
2020-07-30 05:00:00 19.8 7 Norte 14 Noroeste 0 -- -- 89
2020-07-30 04:00:00 20.8 7 Noroeste 17 Oeste 0 -- -- 87
2020-07-30 03:00:00 20.9 8 Oeste 16 Noroeste 0 -- -- 82
2020-07-30 02:00:00 22.3 11 Norte 23 Noroeste 0 -- -- 79
2020-07-30 01:00:00 22.7 13 Norte 19 Nordeste 0 -- -- 76
2020-07-30 00:00:00 23.3 10 Norte 19 Nordeste 0 -- -- 63
2020-07-29 23:00:00 24.4 2 Sudeste 25 Nordeste 0 -- -- 60
2020-07-29 22:00:00 26.1 15 Nordeste 27 Nordeste 0 -- -- 53
2020-07-29 21:00:00 27.8 13 Norte 34 Nordeste 0 -- -- 54
2020-07-29 20:00:00 30.1 22 Nordeste 37 Nordeste 0 -- -- 53
2020-07-29 19:00:00 32 21 Nordeste 37 Nordeste 0 -- -- 50
2020-07-29 18:00:00 33.4 20 Nordeste 35 Nordeste 0 -- -- 47
2020-07-29 17:00:00 33.9 23 Nordeste 37 Norte 0 -- -- 47
2020-07-29 16:00:00 34.5 15 Nordeste 35 Nordeste 0 -- -- 44
2020-07-29 15:00:00 33.9 9 Nordeste 29 Nordeste 0 -- -- 43
2020-07-29 14:00:00 33.1 12 Nordeste 27 Norte 0 -- -- 47
2020-07-29 13:00:00 31.6 14 Norte 29 Norte 0 -- -- 50
2020-07-29 12:00:00 30.2 15 Norte 27 Norte 0 -- -- 55
2020-07-29 11:00:00 28.4 17 Norte 29 Nordeste 0 -- -- 58
2020-07-29 10:00:00 26.5 18 Nordeste 29 Nordeste 0 -- -- 65
2020-07-29 09:00:00 24.4 17 Nordeste 30 Norte 0 -- -- 71
2020-07-29 08:00:00 22.3 15 Norte 27 Norte 0 -- -- 82
2020-07-29 07:00:00 21.8 15 Norte 30 Norte 0 -- -- 85
2020-07-29 06:00:00 21.5 16 Norte 28 Noroeste 0 -- -- 86
2020-07-29 05:00:00 21.5 17 Norte 32 Norte 0 -- -- 86
2020-07-29 04:00:00 21.3 15 Noroeste 26 Norte 0 -- -- 87
2020-07-29 03:00:00 21.2 10 Noroeste 21 Noroeste 0 -- -- 85
2020-07-29 02:00:00 20.7 5 Noroeste 11 Noroeste 0 -- -- 84
2020-07-29 01:00:00 20.7 3 Oeste 5 Norte 0 -- -- 74
2020-07-29 00:00:00 22.1 0 Calma 9 Nordeste 0 -- -- 75
2020-07-28 23:00:00 24.6 9 Nordeste 16 Nordeste 0 -- -- 61
2020-07-28 22:00:00 26.2 5 Nordeste 30 Nordeste 0 -- -- 65
2020-07-28 21:00:00 28.4 8 Nordeste 19 Este 0 -- -- 58
2020-07-28 20:00:00 32.1 11 Sur 19 Sur 0 -- -- 45
2020-07-28 19:00:00 34.2 11 Sudeste 22 Sur 0 -- -- 37
2020-07-28 18:00:00 34.8 14 Sudeste 30 Sur 0 -- -- 33
2020-07-28 17:00:00 36.2 14 Sur 31 Sudoeste 0 -- -- 29
2020-07-28 16:00:00 35.7 16 Sur 28 Sur 0 -- -- 30
2020-07-28 15:00:00 35.1 16 Sur 29 Sur 0 -- -- 32
2020-07-28 14:00:00 34.3 18 Sur 32 Sur 0 -- -- 36
2020-07-28 13:00:00 34.7 18 Sur 26 Sudeste 0 -- -- 33
2020-07-28 12:00:00 34.9 16 Sur 23 Sur 0 -- -- 25
2020-07-28 11:00:00 31.1 5 Norte 10 Norte 0 -- -- 31
2020-07-28 10:00:00 26.3 6 Norte 10 Norte 0 -- -- 42
2020-07-28 09:00:00 21.9 4 Oeste 8 Oeste 0 -- -- 52
2020-07-28 08:00:00 16.2 6 Noroeste 8 Noroeste 0 -- -- 71
2020-07-28 07:00:00 14.9 5 Norte 9 Noroeste 0 -- -- 73
2020-07-28 06:00:00 14.9 6 Norte 8 Oeste 0 -- -- 70
2020-07-28 05:00:00 15.2 2 Oeste 8 Oeste 0 -- -- 70
2020-07-28 04:00:00 15.7 0 Calma 3 Nordeste 0 -- -- 72
2020-07-28 03:00:00 17.2 3 Sudoeste 6 Norte 0 -- -- 65
2020-07-28 02:00:00 18.9 3 Nordeste 7 Este 0 -- -- 58
2020-07-28 01:00:00 20.5 2 Sudoeste 15 Sudeste 0 -- -- 56
2020-07-28 00:00:00 22.3 13 Sudeste 17 Sudeste 0 -- -- 46
2020-07-27 23:00:00 24.2 9 Sudeste 21 Sur 0 -- -- 42
2020-07-27 22:00:00 26.4 9 Sudeste 30 Sur 0 -- -- 38
2020-07-27 21:00:00 28.4 14 Sur 31 Sur 0 -- -- 34
2020-07-27 20:00:00 31.9 21 Sur 35 Sudoeste 0 -- -- 28
2020-07-27 19:00:00 34 24 Sur 38 Sur 0 -- -- 25
2020-07-27 18:00:00 34.6 24 Sur 35 Sur 0 -- -- 25
2020-07-27 17:00:00 35.6 24 Sur 33 Sur 0 -- -- 26
2020-07-27 16:00:00 36.3 22 Sudeste 33 Sudeste 0 -- -- 24
2020-07-27 15:00:00 36.6 18 Sudeste 30 Sur 0 -- -- 25
2020-07-27 14:00:00 35.5 17 Sur 32 Sudeste 0 -- -- 26
2020-07-27 13:00:00 35.1 19 Sur 29 Sudoeste 0 -- -- 25
2020-07-27 12:00:00 32.9 8 Sur 21 Sudeste 0 -- -- 34
2020-07-27 09:00:00 -- -- -- -- -- -- -- -- --
2020-07-27 08:00:00 -- -- -- -- -- -- -- -- --
2020-07-27 07:00:00 15.8 4 Noroeste 6 Noroeste 0 -- -- 93
2020-07-27 06:00:00 16.5 5 Noroeste 12 Oeste 0 -- -- 93
2020-07-27 05:00:00 14.9 0 Calma 3 Sur 0 -- -- 87
2020-07-27 04:00:00 15.8 2 Oeste 4 Oeste 0 -- -- 85
2020-07-27 03:00:00 17 0 Calma 5 Oeste 0 -- -- 81
2020-07-27 02:00:00 18.4 0 Calma 7 Este 0 -- -- 81
2020-07-27 01:00:00 19.7 0 Calma 5 Sudoeste 0 -- -- 75
2020-07-27 00:00:00 21.7 0 Calma 8 Este 0 -- -- 74
2020-07-26 23:00:00 23.5 4 Sudeste 13 Sudeste 0 -- -- 65
2020-07-26 22:00:00 24.9 11 Sudeste 20 Sudeste 0 -- -- 61
2020-07-26 21:00:00 28.2 14 Sudeste 26 Sur 0 -- -- 50
2020-07-26 20:00:00 31.2 18 Sur 26 Sur 0 -- -- 38
2020-07-26 19:00:00 33.1 20 Sur 30 Sudeste 0 -- -- 36
2020-07-26 18:00:00 35 22 Sudeste 29 Sudeste 0 -- -- 31
2020-07-26 17:00:00 36.1 18 Sur 30 Sudeste 0 -- -- 32
2020-07-26 16:00:00 36.4 17 Sur 31 Sudeste 0 -- -- 33
2020-07-26 15:00:00 36 18 Sur 31 Sudeste 0 -- -- 34
2020-07-26 14:00:00 35.2 17 Sudeste 29 Sudeste 0 -- -- 32
2020-07-26 13:00:00 34.4 19 Sudeste 30 Sudeste 0 -- -- 30
2020-07-26 12:00:00 33.7 9 Sudeste 21 Sudeste 0 -- -- 31
2020-07-26 11:00:00 29.1 4 Este 8 Sudeste 0 -- -- 48
2020-07-26 10:00:00 24.7 4 Norte 12 Norte 0 -- -- 68
2020-07-26 09:00:00 21.1 5 Norte 9 Noroeste 0 -- -- 79
2020-07-26 08:00:00 15.2 0 Calma -- -- 0 -- -- 83
2020-07-26 07:00:00 13.7 0 Calma -- -- 0 -- -- 85
2020-07-26 06:00:00 14.3 0 Calma -- -- 0 -- -- 83
2020-07-26 05:00:00 15 0 Calma -- -- 0 -- -- 80
2020-07-26 04:00:00 15.9 0 Calma -- -- 0 -- -- 82
2020-07-26 03:00:00 16.9 0 Calma 2 Sudeste 0 -- -- 78
2020-07-26 02:00:00 18.6 0 Calma 4 Sudeste 0 -- -- 73
2020-07-26 01:00:00 20.6 3 Sudeste 17 Este 0 -- -- 66
2020-07-26 00:00:00 21.8 14 Sudeste 19 Sudeste 0 -- -- 64
2020-07-25 23:00:00 22.9 10 Sudeste 16 Sudeste 0 -- -- 59
2020-07-25 22:00:00 24.3 11 Sudeste 15 Sudeste 0 -- -- 48
2020-07-25 21:00:00 27.8 12 Sudeste 20 Sur 0 -- -- 39
2020-07-25 20:00:00 30.2 16 Sur 27 Sur 0 -- -- 36
2020-07-25 19:00:00 31.4 22 Sur 32 Sur 0 -- -- 33
2020-07-25 18:00:00 33 21 Sur 28 Sur 0 -- -- 32
2020-07-25 17:00:00 33.6 18 Sur 30 Sudeste 0 -- -- 31
2020-07-25 16:00:00 33.6 17 Sur 31 Sudeste 0 -- -- 32
2020-07-25 15:00:00 33.1 19 Sur 28 Sudeste 0 -- -- 33
2020-07-25 14:00:00 32.7 18 Sudeste 26 Sur 0 -- -- 32
2020-07-25 13:00:00 31.5 15 Sur 25 Sudeste 0 -- -- 33
2020-07-25 12:00:00 30.7 15 Sur 22 Sur 0 -- -- 31
2020-07-25 11:00:00 28.6 11 Sur 18 Sur 0 -- -- 31
2020-07-25 10:00:00 24.8 3 Norte 8 Noroeste 0 -- -- 57
2020-07-25 09:00:00 21.5 0 Calma -- -- 0 -- -- 80
2020-07-25 08:00:00 17.6 0 Calma -- -- 0 -- -- 89
2020-07-25 07:00:00 16.2 0 Calma -- -- 0 -- -- 85
2020-07-25 06:00:00 17.3 0 Calma 4 Sudoeste 0 -- -- 86
2020-07-25 05:00:00 18.1 2 Oeste 4 Sur 0 -- -- 87
2020-07-25 04:00:00 18.6 0 Calma 6 Este 0 -- -- 84
2020-07-25 03:00:00 19.8 8 Este 14 Este 0 -- -- 80
2020-07-25 02:00:00 20.7 13 Sudeste 15 Este 0 -- -- 79
2020-07-25 01:00:00 20.8 11 Este 17 Sudeste 0 -- -- 72
2020-07-25 00:00:00 21.1 8 Este 12 Este 0 -- -- 64
2020-07-24 23:00:00 21.8 6 Este 9 Este 0 -- -- 63
2020-07-24 22:00:00 23.8 3 Nordeste 21 Sur 0 -- -- 57
2020-07-24 21:00:00 26 17 Sur 27 Sur 0 -- -- 52
2020-07-24 20:00:00 27.8 21 Sur 31 Sudeste 0 -- -- 51
2020-07-24 19:00:00 29.4 22 Sur 35 Sur 0 -- -- 45
2020-07-24 18:00:00 30 25 Sur 39 Sudeste 0 -- -- 44
2020-07-24 17:00:00 31.4 26 Sudeste 36 Sudeste 0 -- -- 42
2020-07-24 16:00:00 30.8 26 Sur 36 Sur 0 -- -- 42
2020-07-24 15:00:00 34.2 24 Sudeste 35 Sur 0 -- -- 38
2020-07-24 14:00:00 34.5 19 Sur 32 Sudeste 0 -- -- 35
2020-07-24 13:00:00 34.4 4 Sur 14 Sudoeste 0 -- -- 32
2020-07-24 12:00:00 32.2 6 Oeste 12 Oeste 0 -- -- 37
2020-07-24 11:00:00 30.4 6 Sur 13 Este 0 -- -- 39
2020-07-24 10:00:00 26.1 0 Calma -- -- 0 -- -- 45
2020-07-24 09:00:00 21.3 0 Calma -- -- 0 -- -- 57
2020-07-24 08:00:00 16.4 0 Calma -- -- 0 -- -- 74
2020-07-24 07:00:00 14.6 0 Calma -- -- 0 -- -- 79
2020-07-24 06:00:00 15.2 0 Calma -- -- 0 -- -- 76
2020-07-24 05:00:00 15.8 0 Calma 0 Calma 0 -- -- 74
2020-07-24 04:00:00 17.3 0 Calma 8 Sudoeste 0 -- -- 71
2020-07-24 03:00:00 19.1 6 Sudoeste 12 Sur 0 -- -- 61
2020-07-24 02:00:00 20.1 5 Sudeste 13 Sur 0 -- -- 63
2020-07-24 01:00:00 20.6 10 Sudeste 18 Sudeste 0 -- -- 66
2020-07-24 00:00:00 21.5 6 Sudeste 17 Sur 0 -- -- 58
2020-07-23 23:00:00 23 15 Sur 22 Sudeste 0 -- -- 54
2020-07-23 22:00:00 24 15 Sudeste 27 Sudeste 0 -- -- 60
2020-07-23 21:00:00 26.3 21 Sudeste 30 Sudeste 0 -- -- 53
2020-07-23 20:00:00 29.4 21 Sur 33 Sudeste 0 -- -- 37
2020-07-23 19:00:00 31.3 21 Sur 34 Sur 0 -- -- 34
2020-07-23 18:00:00 32.6 21 Sur 31 Sudeste 0 -- -- 32
2020-07-23 17:00:00 33.4 20 Sur 35 Sur 0 -- -- 30
2020-07-23 16:00:00 34.4 16 Sur 29 Sudeste 0 -- -- 28
2020-07-23 15:00:00 34.4 12 Sur 27 Sudeste 0 -- -- 28
2020-07-23 14:00:00 33.8 7 Sudeste 25 Sudoeste 0 -- -- 28
2020-07-23 13:00:00 32 5 Sur 15 Nordeste 0 -- -- 29
2020-07-23 12:00:00 30.3 7 Noroeste 14 Noroeste 0 -- -- 33
2020-07-23 11:00:00 27.6 5 Noroeste 19 Oeste 0 -- -- 46
2020-07-23 10:00:00 24.4 6 Norte 13 Noroeste 0 -- -- 56
2020-07-23 09:00:00 21.2 8 Norte 12 Norte 0 -- -- 65
2020-07-23 08:00:00 16.5 4 Norte 8 Norte 0 -- -- 78
2020-07-23 07:00:00 15.5 5 Norte 13 Noroeste 0 -- -- 79
2020-07-23 06:00:00 16.6 6 Noroeste 13 Noroeste 0 -- -- 79
2020-07-23 05:00:00 16.1 7 Noroeste 14 Noroeste 0 -- -- 83
2020-07-23 04:00:00 16.3 6 Norte 10 Noroeste 0 -- -- 84
2020-07-23 03:00:00 16.8 6 Norte 11 Norte 0 -- -- 82
2020-07-23 02:00:00 17.4 4 Noroeste 9 Oeste 0 -- -- 82
2020-07-23 01:00:00 18.4 5 Noroeste 10 Norte 0 -- -- 77
2020-07-23 00:00:00 20.3 6 Norte 13 Norte 0 -- -- 70
2020-07-22 23:00:00 22 5 Norte 28 Norte 0 -- -- 65
2020-07-22 22:00:00 23.9 21 Nordeste 39 Nordeste 0 -- -- 59
2020-07-22 21:00:00 25.3 28 Nordeste 44 Nordeste 0 -- -- 53
2020-07-22 20:00:00 27 28 Nordeste 46 Nordeste 0 -- -- 50
2020-07-22 19:00:00 28.7 26 Nordeste 44 Nordeste 0 -- -- 51
2020-07-22 18:00:00 29.7 24 Nordeste 44 Nordeste 0 -- -- 50
2020-07-22 17:00:00 31 23 Nordeste 41 Nordeste 0 -- -- 46
2020-07-22 16:00:00 31 24 Nordeste 40 Norte 0 -- -- 47
2020-07-22 15:00:00 30.8 20 Nordeste 33 Nordeste 0 -- -- 46
2020-07-22 14:00:00 31.2 17 Nordeste 28 Nordeste 0 -- -- 46
2020-07-22 13:00:00 29 15 Norte 37 Nordeste 0 -- -- 52
2020-07-22 12:00:00 26.2 22 Nordeste 35 Nordeste 0 -- -- 63
2020-07-22 11:00:00 25.3 11 Norte 24 Norte 0 -- -- 67
2020-07-22 10:00:00 22.1 18 Este 38 Este 0.2 -- -- 74
2020-07-22 09:00:00 23.2 15 Norte 26 Nordeste 0 -- -- 73
2020-07-22 08:00:00 20.7 8 Norte 17 Norte 0 -- -- 81
2020-07-22 07:00:00 19.6 12 Norte 23 Norte 0 -- -- 86
2020-07-22 06:00:00 19.4 10 Noroeste 23 Noroeste 0 -- -- 87
2020-07-22 05:00:00 19 9 Norte 17 Norte 0 -- -- 88
2020-07-22 04:00:00 19.2 10 Norte 17 Norte 0 -- -- 90
2020-07-22 03:00:00 19.9 5 Noroeste 13 Nordeste 0 -- -- 85
2020-07-22 02:00:00 21.2 8 Noroeste 20 Norte 0 -- -- 81
2020-07-22 01:00:00 21.5 9 Norte 19 Nordeste 0 -- -- 83
2020-07-22 00:00:00 21.9 10 Norte 21 Nordeste 0 -- -- 80
2020-07-21 23:00:00 22.6 10 Nordeste 22 Nordeste 0 -- -- 76
2020-07-21 22:00:00 23.6 6 Norte 15 Oeste 0 -- -- 58
2020-07-21 21:00:00 27.2 7 Oeste 23 Sur 0 -- -- 34
2020-07-21 20:00:00 30.7 15 Sur 31 Sur 0 -- -- 23
2020-07-21 19:00:00 32.1 21 Sur 30 Sudeste 0 -- -- 23
2020-07-21 18:00:00 32.7 22 Sudeste 33 Sudeste 0 -- -- 26
2020-07-21 17:00:00 32.9 24 Sur 33 Sur 0 -- -- 29
2020-07-21 16:00:00 33 22 Sur 32 Sur 0 -- -- 36
2020-07-21 15:00:00 33.3 19 Sudeste 36 Sur 0 -- -- 32
2020-07-21 14:00:00 32.7 18 Sur 27 Este 0 -- -- 34
2020-07-21 13:00:00 32.4 10 Sudeste 22 Sudeste 0 -- -- 24
2020-07-21 12:00:00 29.9 6 Oeste 14 Norte 0 -- -- 41
2020-07-21 11:00:00 27.3 9 Nordeste 23 Norte 0 -- -- 51
2020-07-21 10:00:00 24.4 12 Norte 26 Norte 0 -- -- 66
2020-07-21 09:00:00 21.5 12 Norte 25 Norte 0 -- -- 80
2020-07-21 08:00:00 18.1 8 Noroeste 16 Noroeste 0 -- -- 95
2020-07-21 07:00:00 17.3 10 Noroeste 19 Noroeste 0 -- -- 96
2020-07-21 06:00:00 16.3 5 Noroeste 9 Noroeste 0 -- -- 95
2020-07-21 05:00:00 16.6 6 Noroeste 10 Noroeste 0 -- -- 94
2020-07-21 04:00:00 15.6 2 Sudoeste 4 Oeste 0 -- -- 91
2020-07-21 03:00:00 16.3 0 Calma 8 Oeste 0 -- -- 89
2020-07-21 02:00:00 17.5 3 Oeste 6 Sudoeste 0 -- -- 89
2020-07-21 01:00:00 19 5 Sudoeste 7 Sudoeste 0 -- -- 86
2020-07-21 00:00:00 21 4 Sur 11 Este 0 -- -- 84
2020-07-20 23:00:00 22.2 9 Este 14 Sudeste 0 -- -- 78
2020-07-20 22:00:00 23.6 8 Sudeste 17 Sudeste 0 -- -- 60
2020-07-20 21:00:00 26.1 14 Sur 26 Sudoeste 0 -- -- 51
2020-07-20 20:00:00 28.3 21 Sur 33 Sur 0 -- -- 48
2020-07-20 19:00:00 30.1 22 Sur 32 Sur 0 -- -- 47
2020-07-20 18:00:00 32 17 Sur 27 Sudeste 0 -- -- 43
2020-07-20 17:00:00 32.5 19 Sur 28 Sur 0 -- -- 40
2020-07-20 16:00:00 32.8 19 Sur 28 Sur 0 -- -- 41
2020-07-20 15:00:00 32.5 19 Sur 28 Sur 0 -- -- 44
2020-07-20 14:00:00 31.9 21 Sur 29 Sudeste 0 -- -- 42
2020-07-20 13:00:00 31.3 19 Sur 26 Sudeste 0 -- -- 40
2020-07-20 12:00:00 30.3 14 Sudeste 27 Sudeste 0 -- -- 39
2020-07-20 11:00:00 27.2 4 Este 12 Este 0 -- -- 47
2020-07-20 10:00:00 22.6 3 Sudeste 5 Sudeste 0 -- -- 67
2020-07-20 09:00:00 20.7 0 Calma 4 Oeste 0 -- -- 75
2020-07-20 08:00:00 19.9 2 Sur 4 Sur 0 -- -- 80
2020-07-20 07:00:00 19.8 0 Calma 8 Sudeste 0 -- -- 79
2020-07-20 06:00:00 20.2 7 Sur 11 Sudeste 0 -- -- 78
2020-07-20 05:00:00 20.7 8 Sudeste 17 Sur 0 -- -- 77
2020-07-20 04:00:00 21.1 10 Sur 17 Sudeste 0 -- -- 70
2020-07-20 03:00:00 21.1 9 Sudeste 20 Este 0 -- -- 81
2020-07-20 02:00:00 21.4 14 Sudeste 22 Sudeste 0 -- -- 79
2020-07-20 01:00:00 21.3 13 Sudeste 20 Sudeste 0 -- -- 77
2020-07-20 00:00:00 21.9 9 Sudeste 12 Sudeste 0 -- -- 67
2020-07-19 23:00:00 22.4 8 Sudeste 18 Sudeste 0 -- -- 68
2020-07-19 22:00:00 23.3 11 Sudeste 20 Sudeste 0 -- -- 62
2020-07-19 21:00:00 24.2 14 Sur 37 Sudeste 0 -- -- 59
2020-07-19 20:00:00 26.2 26 Sudeste 42 Sudeste 0 -- -- 53
2020-07-19 19:00:00 29 27 Sudeste 39 Sudeste 0 -- -- 45
2020-07-19 18:00:00 30.5 26 Sudeste 33 Sudeste 0 -- -- 40
2020-07-19 17:00:00 31.2 24 Sudeste 37 Sudeste 0 -- -- 39
2020-07-19 16:00:00 31.4 23 Sudeste 38 Sudeste 0 -- -- 38
2020-07-19 15:00:00 31.1 21 Sudeste 36 Sudeste 0 -- -- 39
2020-07-19 14:00:00 31 17 Sur 40 Sur 0 -- -- 40
2020-07-19 13:00:00 29.4 19 Sudeste 34 Sudeste 0 -- -- 43
2020-07-19 12:00:00 28.6 18 Sudeste 30 Sudeste 0 -- -- 45
2020-07-19 11:00:00 27 16 Sur 26 Sudeste 0 -- -- 48
2020-07-19 10:00:00 24.5 13 Sur 18 Sudeste 0 -- -- 58
2020-07-19 09:00:00 20.2 0 Calma 5 Este 0 -- -- 82
2020-07-19 08:00:00 15.8 0 Calma -- -- 0 -- -- 94
2020-07-19 07:00:00 13.8 0 Calma -- -- 0 -- -- 93
2020-07-19 06:00:00 14.3 0 Calma 6 Oeste 0 -- -- 92
2020-07-19 05:00:00 15.5 4 Nordeste 6 Nordeste 0 -- -- 91
2020-07-19 04:00:00 16.8 4 Sur 9 Sudeste 0 -- -- 88
2020-07-19 03:00:00 18 10 Sudeste 15 Sudeste 0 -- -- 90
2020-07-19 02:00:00 18.5 10 Sudeste 13 Sudeste 0 -- -- 89
2020-07-19 01:00:00 19.2 7 Sudeste 16 Sudeste 0 -- -- 86
2020-07-19 00:00:00 20.1 11 Sudeste 21 Sudeste 0 -- -- 83
2020-07-18 23:00:00 21 13 Sudeste 24 Sur 0 -- -- 79
2020-07-18 22:00:00 22.2 17 Sur 28 Sudeste 0 -- -- 74
2020-07-18 21:00:00 24 19 Sudeste 32 Sudeste 0 -- -- 67
2020-07-18 20:00:00 26.2 21 Sur 31 Sur 0 -- -- 60
2020-07-18 19:00:00 27.9 20 Sur 31 Sudeste 0 -- -- 54
2020-07-18 18:00:00 29 20 Sudeste 32 Sudeste 0 -- -- 50
2020-07-18 17:00:00 29.4 21 Sudeste 32 Sudeste 0 -- -- 48
2020-07-18 16:00:00 29.7 22 Sudeste 35 Sudeste 0 -- -- 47
2020-07-18 15:00:00 29.5 14 Sur 28 Sur 0 -- -- 50
2020-07-18 14:00:00 28.7 15 Sur 41 Sur 0 -- -- 52
2020-07-18 13:00:00 27.6 18 Sur 30 Sur 0 -- -- 55
2020-07-18 12:00:00 26.7 14 Sur 28 Sur 0 -- -- 56
2020-07-18 11:00:00 25.4 11 Sur 21 Sur 0 -- -- 59
2020-07-18 10:00:00 23.2 6 Oeste 12 Sudeste 0 -- -- 68
2020-07-18 09:00:00 19.9 3 Sudeste 6 Sudeste 0 -- -- 85
2020-07-18 08:00:00 16.4 0 Calma 4 Este 0 -- -- 92
2020-07-18 07:00:00 15 0 Calma 6 Oeste 0 -- -- 91
2020-07-18 06:00:00 16 0 Calma 9 Norte 0 -- -- 90
2020-07-18 05:00:00 16.9 2 Sur 6 Sur 0 -- -- 90
2020-07-18 04:00:00 18.3 5 Este 8 Sur 0 -- -- 87
2020-07-18 03:00:00 20.2 6 Sur 10 Sudeste 0 -- -- 83
2020-07-18 02:00:00 20.1 7 Sudeste 10 Sudeste 0 -- -- 88
2020-07-18 01:00:00 19.5 6 Sudeste 11 Sudeste 0 -- -- 87
2020-07-18 00:00:00 20.1 7 Sudeste 12 Sudeste 0 -- -- 84
2020-07-17 23:00:00 21 11 Sudeste 21 Sudeste 0 -- -- 82
2020-07-17 22:00:00 22.3 15 Sudeste 22 Sur 0 -- -- 75
2020-07-17 21:00:00 23.6 15 Sudeste 30 Sudeste 0 -- -- 70
2020-07-17 20:00:00 25.8 21 Sur 32 Sudeste 0 -- -- 59
2020-07-17 19:00:00 27.3 23 Sur 35 Sur 0 -- -- 52
2020-07-17 18:00:00 28.4 22 Sur 36 Sur 0 -- -- 49
2020-07-17 17:00:00 29 22 Sudeste 35 Sudeste 0 -- -- 50
2020-07-17 16:00:00 29.9 22 Sur 34 Sudeste 0 -- -- 48
2020-07-17 15:00:00 29.3 22 Sudeste 38 Sudeste 0 -- -- 48
2020-07-17 14:00:00 29.1 19 Sudeste 33 Sudeste 0 -- -- 48
2020-07-17 13:00:00 28.3 18 Sur 29 Sur 0 -- -- 48
2020-07-17 12:00:00 27.7 15 Sur 30 Sur 0 -- -- 46
2020-07-17 11:00:00 26.4 15 Sudeste 25 Sur 0 -- -- 43
2020-07-17 10:00:00 24.2 13 Sudeste 22 Sur 0 -- -- 61
2020-07-17 09:00:00 21.3 0 Calma 4 Sudeste 0 -- -- 80
2020-07-17 08:00:00 17.5 0 Calma 5 Sudoeste 0 -- -- 92
2020-07-17 07:00:00 15.7 0 Calma 6 Noroeste 0 -- -- 91
2020-07-17 06:00:00 16.4 3 Noroeste 6 Noroeste 0 -- -- 91
2020-07-17 05:00:00 17.1 0 Calma 6 Sudoeste 0 -- -- 90
2020-07-17 04:00:00 18.4 2 Sur 9 Sudeste 0 -- -- 89
2020-07-17 03:00:00 19 4 Sudeste 6 Sudeste 0 -- -- 87
2020-07-17 02:00:00 19.4 8 Sur 15 Sur 0 -- -- 86
2020-07-17 01:00:00 19.9 13 Sur 21 Sudoeste 0 -- -- 85
2020-07-17 00:00:00 20.5 10 Sur 19 Sur 0 -- -- 81
2020-07-16 23:00:00 21.4 12 Sudeste 22 Sudeste 0 -- -- 77
2020-07-16 22:00:00 22.3 14 Sur 23 Sur 0 -- -- 72
2020-07-16 21:00:00 24 17 Sudeste 28 Sur 0 -- -- 66
2020-07-16 20:00:00 26.5 18 Sur 28 Sudeste 0 -- -- 56
2020-07-16 19:00:00 28.1 19 Sur 27 Sur 0 -- -- 51
2020-07-16 18:00:00 29.5 16 Sur 29 Sur 0 -- -- 46
2020-07-16 17:00:00 29.7 17 Sur 33 Sudeste 0 -- -- 46
2020-07-16 16:00:00 29.8 18 Sudeste 34 Sur 0 -- -- 46
2020-07-16 15:00:00 30.1 14 Sur 30 Sudeste 0 -- -- 43
2020-07-16 14:00:00 29.6 15 Sudoeste 26 Sudoeste 0 -- -- 41
2020-07-16 13:00:00 29.2 13 Sudoeste 25 Sur 0 -- -- 42
2020-07-16 12:00:00 27.9 12 Sur 24 Sudeste 0 -- -- 43
2020-07-16 11:00:00 26.3 6 Sur 15 Sur 0 -- -- 45
2020-07-16 10:00:00 23.5 3 Noroeste 9 Noroeste 0 -- -- 60
2020-07-16 09:00:00 20.4 7 Oeste 9 Noroeste 0 -- -- 66
2020-07-16 08:00:00 15.7 0 Calma -- -- 0 -- -- 81
2020-07-16 07:00:00 13 0 Calma 4 Sudoeste 0 -- -- 86
2020-07-16 06:00:00 13.6 0 Calma 6 Noroeste 0 -- -- 84
2020-07-16 05:00:00 14.3 0 Calma -- -- 0 -- -- 84
2020-07-16 04:00:00 15.3 0 Calma 10 Sudeste 0 -- -- 81
2020-07-16 03:00:00 16.7 9 Sudeste 10 Sudeste 0 -- -- 73
2020-07-16 02:00:00 17.7 7 Sudeste 10 Sudeste 0 -- -- 67
2020-07-16 01:00:00 18.6 7 Sur 10 Sudeste 0 -- -- 69
2020-07-16 00:00:00 19.4 9 Sudeste 17 Sur 0 -- -- 68
2020-07-15 23:00:00 21.3 13 Sur 22 Sur 0 -- -- 60
2020-07-15 22:00:00 22.3 15 Sur 24 Sur 0 -- -- 56
2020-07-15 21:00:00 24.1 15 Sur 27 Sur 0 -- -- 51
2020-07-15 20:00:00 25.8 21 Sur 32 Sudeste 0 -- -- 52
2020-07-15 19:00:00 27.2 22 Sudeste 33 Sudeste 0 -- -- 50
2020-07-15 18:00:00 27.4 19 Sudeste 32 Sudeste 0 -- -- 50
2020-07-15 17:00:00 29.4 16 Sur 30 Sur 0 -- -- 46
2020-07-15 16:00:00 29.9 16 Sur 27 Sur 0 -- -- 43
2020-07-15 15:00:00 28.9 11 Sur 32 Sur 0 -- -- 43
2020-07-15 14:00:00 28.9 15 Sudeste 30 Sur 0 -- -- 46
2020-07-15 13:00:00 28.1 13 Sur 26 Sur 0 -- -- 49
2020-07-15 12:00:00 27.3 14 Sur 24 Sudeste 0 -- -- 52
2020-07-15 11:00:00 25.6 11 Sudeste 22 Sur 0 -- -- 53
2020-07-15 10:00:00 23.2 4 Sur 9 Sur 0 -- -- 68
2020-07-15 09:00:00 20.5 5 Norte 9 Norte 0 -- -- 78
2020-07-15 08:00:00 16.9 4 Norte 7 Noroeste 0 -- -- 92
2020-07-15 07:00:00 15.2 4 Noroeste 8 Oeste 0 -- -- 92
2020-07-15 06:00:00 15.9 5 Noroeste 8 Noroeste 0 -- -- 90
2020-07-15 05:00:00 17.2 3 Oeste 10 Norte 0 -- -- 87
2020-07-15 04:00:00 18.5 3 Noroeste 7 Norte 0 -- -- 87
2020-07-15 03:00:00 18.6 3 Norte 10 Nordeste 0 -- -- 90
2020-07-15 02:00:00 18 6 Nordeste 10 Nordeste 0 -- -- 88
2020-07-15 01:00:00 18.4 5 Noroeste 7 Noroeste 0 -- -- 83
2020-07-15 00:00:00 19.1 5 Este 15 Oeste 0 -- -- 79
2020-07-14 23:00:00 20.3 9 Oeste 19 Norte 0 -- -- 75
2020-07-14 22:00:00 21.5 16 Norte 30 Nordeste 0 -- -- 72
2020-07-14 21:00:00 22.7 20 Nordeste 31 Nordeste 0 -- -- 76
2020-07-14 20:00:00 23.8 14 Sudeste 27 Sudeste 0 -- -- 65
2020-07-14 19:00:00 24 19 Sudeste 29 Sur 0 -- -- 67
2020-07-14 18:00:00 25.2 16 Sur 27 Sur 0 -- -- 57
2020-07-14 17:00:00 26.7 21 Sudeste 32 Sur 0 -- -- 51
2020-07-14 16:00:00 28 22 Sur 35 Sudeste 0 -- -- 46
2020-07-14 15:00:00 27.5 23 Sudeste 37 Sudeste 0 -- -- 48
2020-07-14 14:00:00 27.5 24 Sur 39 Sur 0 -- -- 49
2020-07-14 13:00:00 27.2 21 Sur 33 Sur 0 -- -- 46
2020-07-14 12:00:00 28.7 10 Sudoeste 22 Sur 0 -- -- 43
2020-07-14 11:00:00 26.2 5 Norte 13 Norte 0 -- -- 51
2020-07-14 10:00:00 23.4 4 Noroeste 10 Norte 0 -- -- 65
2020-07-14 09:00:00 20.9 4 Noroeste 8 Noroeste 0 -- -- 76
2020-07-14 08:00:00 17 0 Calma 5 Noroeste 0 -- -- 89
2020-07-14 07:00:00 15.6 4 Sudoeste 5 Noroeste 0 -- -- 86
2020-07-14 06:00:00 16.5 4 Noroeste 8 Noroeste 0 -- -- 90
2020-07-14 05:00:00 16.2 2 Norte 5 Noroeste 0 -- -- 89
2020-07-14 04:00:00 16.9 0 Calma 6 Norte 0 -- -- 85
2020-07-14 03:00:00 18.1 3 Sudoeste 5 Noroeste 0 -- -- 81
2020-07-14 02:00:00 19.3 3 Sur 7 Sur 0 -- -- 80
2020-07-14 01:00:00 20.5 3 Sudeste 8 Este 0 -- -- 76
2020-07-14 00:00:00 20.2 3 Este 5 Nordeste 0 -- -- 75
2020-07-13 23:00:00 21.9 0 Calma 14 Sudeste 0 -- -- 69
2020-07-13 22:00:00 23.6 12 Sudeste 17 Sur 0 -- -- 63
2020-07-13 21:00:00 26.2 11 Sur 21 Sur 0 -- -- 52
2020-07-13 20:00:00 28.4 15 Sur 26 Sur 0 -- -- 45
2020-07-13 19:00:00 30 22 Sur 34 Sur 0 -- -- 41
2020-07-13 18:00:00 31.1 19 Sur 36 Sur 0 -- -- 40
2020-07-13 17:00:00 32.2 22 Sur 33 Sur 0 -- -- 40
2020-07-13 16:00:00 33 15 Sur 28 Sur 0 -- -- 38
2020-07-13 15:00:00 32.7 15 Sur 27 Nordeste 0 -- -- 37
2020-07-13 14:00:00 31.8 12 Nordeste 24 Nordeste 0 -- -- 38
2020-07-13 13:00:00 31.3 5 Norte 18 Nordeste 0 -- -- 40
2020-07-13 12:00:00 29.7 6 Nordeste 17 Norte 0 -- -- 43
2020-07-13 11:00:00 27.2 11 Nordeste 18 Noroeste 0 -- -- 50
2020-07-13 10:00:00 23.9 10 Noroeste 18 Noroeste 0 -- -- 68
2020-07-13 09:00:00 20.7 7 Noroeste 12 Noroeste 0 -- -- 84
2020-07-13 08:00:00 17.6 4 Norte 9 Norte 0 -- -- 95
2020-07-13 07:00:00 16.5 6 Noroeste 10 Noroeste 0 -- -- 95
2020-07-13 06:00:00 15.8 6 Noroeste 8 Noroeste 0 -- -- 92
2020-07-13 05:00:00 16.5 0 Calma 6 Oeste 0 -- -- 90
2020-07-13 04:00:00 17.6 3 Norte 8 Noroeste 0 -- -- 88
2020-07-13 03:00:00 18.8 2 Noroeste 7 Noroeste 0 -- -- 86
2020-07-13 02:00:00 20.1 5 Norte 18 Nordeste 0 -- -- 83
2020-07-13 01:00:00 21.1 11 Norte 27 Nordeste 0 -- -- 77
2020-07-13 00:00:00 21.9 13 Oeste 28 Sudoeste 0 -- -- 76
2020-07-12 23:00:00 23 12 Sudoeste 36 Sudeste 0 -- -- 70
2020-07-12 22:00:00 23.1 8 Sur 22 Sudeste 0 -- -- 69
2020-07-12 21:00:00 24.6 14 Sur 30 Sudoeste 0 -- -- 62
2020-07-12 20:00:00 26.1 14 Este 44 Nordeste 0 -- -- 62
2020-07-12 19:00:00 25.8 29 Nordeste 44 Nordeste 0 -- -- 66
2020-07-12 18:00:00 27.7 19 Norte 43 Nordeste 0 -- -- 61
2020-07-12 17:00:00 30.2 5 Norte 30 Sur 0 -- -- 40
2020-07-12 16:00:00 29.5 18 Sur 41 Sur 0 -- -- 39
2020-07-12 15:00:00 30 27 Sur 43 Sudeste 0 -- -- 39
2020-07-12 14:00:00 30.4 27 Sur 46 Sur 0 -- -- 38
2020-07-12 13:00:00 30.8 17 Sur 27 Sudeste 0 -- -- 39
2020-07-12 12:00:00 29.2 10 Sur 26 Sur 0 -- -- 41
2020-07-12 11:00:00 26.4 10 Norte 17 Nordeste 0 -- -- 57
2020-07-12 10:00:00 23.7 2 Sudoeste 22 Sudoeste 0 -- -- 59
2020-07-12 09:00:00 22 16 Sur 36 Este 0 -- -- 68
2020-07-12 08:00:00 19.6 31 Sudeste 43 Sudeste 0 -- -- 91
2020-07-12 07:00:00 17.5 0 Calma -- -- 0 -- -- 92
2020-07-12 06:00:00 16.6 0 Calma -- -- 0 -- -- 92
2020-07-12 05:00:00 16.9 0 Calma 7 Oeste 0 -- -- 88
2020-07-12 04:00:00 17.6 0 Calma 12 Oeste 0 -- -- 90
2020-07-12 03:00:00 16.9 2 Oeste 4 Noroeste 0 -- -- 89
2020-07-12 02:00:00 17.7 0 Calma 5 Este 0 -- -- 85
2020-07-12 01:00:00 19.4 0 Calma 14 Nordeste 0 -- -- 83
2020-07-12 00:00:00 21.3 7 Norte 13 Nordeste 0 -- -- 84
2020-07-11 23:00:00 21.1 5 Noroeste 8 Noroeste 0 -- -- 73
2020-07-11 22:00:00 23.2 3 Nordeste 15 Sur 0 -- -- 65
2020-07-11 21:00:00 26.2 9 Sur 21 Sur 0 -- -- 56
2020-07-11 20:00:00 28.6 14 Sur 22 Sudeste 0 -- -- 47
2020-07-11 19:00:00 29.8 19 Sur 31 Sur 0 -- -- 48
2020-07-11 18:00:00 31.6 12 Sudeste 31 Sur 0 -- -- 46
2020-07-11 17:00:00 30.7 19 Sudeste 37 Nordeste 0 -- -- 46
2020-07-11 16:00:00 30.2 19 Nordeste 44 Nordeste 0 -- -- 50
2020-07-11 15:00:00 31.2 22 Nordeste 39 Nordeste 0 -- -- 49
2020-07-11 14:00:00 30.1 22 Nordeste 37 Norte 0 -- -- 51
2020-07-11 13:00:00 29 20 Norte 33 Nordeste 0 -- -- 54
2020-07-11 12:00:00 27.7 23 Nordeste 37 Nordeste 0 -- -- 57
2020-07-11 11:00:00 26.5 19 Nordeste 29 Norte 0 -- -- 60
2020-07-11 10:00:00 24.7 16 Norte 33 Norte 0 -- -- 65
2020-07-11 09:00:00 22.2 19 Norte 31 Norte 0 -- -- 76
2020-07-11 08:00:00 19.4 12 Noroeste 23 Noroeste 0 -- -- 86
2020-07-11 07:00:00 17.8 11 Noroeste 22 Noroeste 0 -- -- 90
2020-07-11 06:00:00 18.2 10 Noroeste 17 Norte 0 -- -- 91
2020-07-11 05:00:00 18.2 5 Noroeste 14 Noroeste 0 -- -- 91
2020-07-11 04:00:00 19.1 7 Noroeste 22 Noroeste 0 -- -- 87
2020-07-11 03:00:00 19.8 8 Noroeste 22 Norte 0 -- -- 84
2020-07-11 02:00:00 20.4 12 Norte 21 Norte 0 -- -- 82
2020-07-11 01:00:00 19.5 7 Norte 11 Norte 0 -- -- 85
2020-07-11 00:00:00 20.1 3 Nordeste 6 Norte 0 -- -- 80
2020-07-10 23:00:00 21.6 2 Este 6 Sudeste 0 -- -- 76
2020-07-10 22:00:00 24.1 4 Este 17 Sur 0 -- -- 66
2020-07-10 21:00:00 26.2 8 Sur 24 Sur 0 -- -- 55
2020-07-10 20:00:00 28.5 15 Sur 31 Sur 0 -- -- 48
2020-07-10 19:00:00 30 17 Sur 30 Sur 0 -- -- 45
2020-07-10 18:00:00 30.8 21 Sur 30 Sur 0 -- -- 46
2020-07-10 17:00:00 31.5 19 Sur 33 Sur 0 -- -- 45
2020-07-10 16:00:00 32.8 17 Sur 27 Sudeste 0 -- -- 36
2020-07-10 15:00:00 32.7 12 Sur 31 Sudeste 0 -- -- 35
2020-07-10 14:00:00 32.1 13 Sur 29 Sudeste 0 -- -- 35
2020-07-10 13:00:00 30.3 6 Este 16 Este 0 -- -- 46
2020-07-10 12:00:00 28.9 6 Norte 18 Norte 0 -- -- 49
2020-07-10 11:00:00 26.4 11 Norte 27 Norte 0 -- -- 58
2020-07-10 10:00:00 24.2 15 Norte 28 Norte 0 -- -- 66
2020-07-10 09:00:00 21.9 15 Norte 27 Norte 0 -- -- 78
2020-07-10 08:00:00 18.8 7 Noroeste 12 Noroeste 0 -- -- 92
2020-07-10 07:00:00 17.2 4 Noroeste 14 Noroeste 0 -- -- 91
2020-07-10 06:00:00 17.9 7 Noroeste 17 Oeste 0 -- -- 93
2020-07-10 05:00:00 17.3 8 Noroeste 12 Noroeste 0 -- -- 92
2020-07-10 04:00:00 18 4 Noroeste 11 Oeste 0 -- -- 89
2020-07-10 03:00:00 19.4 4 Oeste 18 Noroeste 0 -- -- 82
2020-07-10 02:00:00 19.9 9 Norte 19 Norte 0 -- -- 80
2020-07-10 01:00:00 20.8 6 Nordeste 28 Nordeste 0 -- -- 76
2020-07-10 00:00:00 21.9 18 Nordeste 31 Nordeste 0 -- -- 76
2020-07-09 23:00:00 22.2 12 Norte 19 Nordeste 0 -- -- 72
2020-07-09 22:00:00 22.4 7 Sudoeste 17 Sur 0 -- -- 52
2020-07-09 21:00:00 26 14 Sur 29 Sur 0 -- -- 40
2020-07-09 20:00:00 29.2 22 Sur 31 Sudeste 0 -- -- 32
2020-07-09 19:00:00 31.2 21 Sudeste 40 Sudeste 0 -- -- 28
2020-07-09 18:00:00 31.4 21 Este 37 Sur 0 -- -- 39
2020-07-09 17:00:00 30.6 26 Sudeste 36 Sudeste 0 -- -- 37
2020-07-09 16:00:00 31.2 20 Sur 31 Sudeste 0 -- -- 35
2020-07-09 15:00:00 31.5 20 Sur 36 Sur 0 -- -- 39
2020-07-09 14:00:00 31.8 8 Nordeste 23 Nordeste 0 -- -- 45
2020-07-09 13:00:00 30.5 10 Nordeste 24 Nordeste 0 -- -- 50
2020-07-09 12:00:00 29 10 Norte 23 Nordeste 0 -- -- 52
2020-07-09 11:00:00 27.6 6 Noroeste 12 Noroeste 0 -- -- 44
2020-07-09 10:00:00 26 8 Este 24 Nordeste 0 -- -- 47
2020-07-09 09:00:00 23.4 18 Nordeste 32 Nordeste 0 -- -- 73
2020-07-09 08:00:00 21.5 16 Norte 27 Nordeste 0 -- -- 79
2020-07-09 07:00:00 19.2 9 Noroeste 15 Noroeste 0 -- -- 80
2020-07-09 06:00:00 18.5 7 Noroeste 13 Norte 0 -- -- 77
2020-07-09 05:00:00 20.3 5 Sudeste 27 Sudoeste 0 -- -- 60
2020-07-09 04:00:00 22.4 19 Sur 43 Sur 0 -- -- 57
2020-07-09 03:00:00 23.8 5 Sur 30 Oeste 0 -- -- 64
2020-07-09 02:00:00 24.6 12 Norte 53 Este 0 -- -- 60
2020-07-09 01:00:00 22.9 45 Sudeste 62 Sudeste 0 -- -- 77
2020-07-09 00:00:00 22.3 4 Este 31 Sudoeste 0 -- -- 76
2020-07-08 23:00:00 22.6 5 Sur 20 Sudoeste 0 -- -- 72
2020-07-08 22:00:00 23.5 10 Sudoeste 23 Sudeste 0 -- -- 69
2020-07-08 21:00:00 25.1 15 Sudeste 27 Sur 0 -- -- 62
2020-07-08 20:00:00 28.8 6 Sur 20 Este 0 -- -- 44
2020-07-08 19:00:00 27.6 13 Sudeste 21 Sudoeste 0 -- -- 49
2020-07-08 18:00:00 27.8 15 Sudoeste 31 Sur 0 -- -- 47
2020-07-08 17:00:00 30.2 22 Sur 32 Sur 0 -- -- 38
2020-07-08 16:00:00 30.8 24 Sur 36 Sur 0 -- -- 36
2020-07-08 15:00:00 30.6 27 Sur 40 Sudoeste 0 -- -- 36
2020-07-08 14:00:00 29.4 14 Sur 26 Sudoeste 0 -- -- 36
2020-07-08 13:00:00 30.5 17 Sur 32 Sur 0 -- -- 32
2020-07-08 12:00:00 29 18 Sur 30 Sudeste 0 -- -- 35
2020-07-08 11:00:00 28.6 14 Sur 24 Sur 0 -- -- 36
2020-07-08 10:00:00 24.8 5 Nordeste 12 Nordeste 0 -- -- 58
2020-07-08 09:00:00 21.7 4 Norte 8 Norte 0 -- -- 81
2020-07-08 08:00:00 16.8 2 Sudoeste 4 Sudoeste 0 -- -- 90
2020-07-08 07:00:00 15.3 0 Calma 4 Noroeste 0 -- -- 88
2020-07-08 06:00:00 16.2 2 Sudoeste 7 Este 0 -- -- 89
2020-07-08 05:00:00 17.4 5 Sudeste 6 Sudoeste 0 -- -- 87
2020-07-08 04:00:00 18.5 5 Este 11 Este 0 -- -- 83
2020-07-08 03:00:00 19.2 8 Este 14 Sudeste 0 -- -- 79
2020-07-08 02:00:00 19.1 6 Sudeste 10 Sudeste 0 -- -- 73
2020-07-08 01:00:00 19 4 Sur 8 Sudeste 0 -- -- 68
2020-07-08 00:00:00 19.8 3 Sudeste 6 Nordeste 0 -- -- 68